Koki Maru No.30 — JD2396 — position and weather

sailwx.info

Track history (hours):
 
Tides and Currents Weather Stations Pressure Air Temp Water Temp Dewpoint Dewpoint Depression Visibility Wind Speed Wind Dir Waves Ship Positions

Koki Maru No.30

Last reported at 2017-Oct-13 07:09 UTC. Time now 2017-Oct-20 05:15 UTC.
Position N 34°58' E 139°22'.

Length 53 m; draft 3 m.

Type: Tanker. MMSI: 431000173.

Date/timePositionNaut miles runAvg speedWind from/ knotsBaromVisibWave heightAir tempDewpointWater temp
2017-Oct-13 07:09N 34°58' E 139°22'210.1
2017-Oct-13 07:00N 34°59' E 139°24'510.2
2017-Oct-13 06:30N 35°01' E 139°29'611.0
2017-Oct-13 05:59N 35°04' E 139°35'611.7
2017-Oct-13 05:30N 35°07' E 139°41'611.5
2017-Oct-13 05:00N 35°12' E 139°45'510.9
2017-Oct-13 04:30N 35°17' E 139°45'611.3
2017-Oct-13 04:00N 35°22' E 139°42'611.1
2017-Oct-13 03:30N 35°28' E 139°42'1 3.0
2017-Oct-13 03:00N 35°29' E 139°43'0 0.0
2017-Oct-13 02:30N 35°29' E 139°43'0 0.0
2017-Oct-13 02:00N 35°29' E 139°43'0 0.0
2017-Oct-13 01:30N 35°29' E 139°43'0 0.0
2017-Oct-13 01:01N 35°29' E 139°43'0 0.0
2017-Oct-13 00:30N 35°29' E 139°43'0 0.0
2017-Oct-13 00:00N 35°29' E 139°43'0 0.0
2017-Oct-12 23:30N 35°29' E 139°43'1 2.1
2017-Oct-12 23:00N 35°28' E 139°42'2 4.6
2017-Oct-12 22:30N 35°26' E 139°43'0 0.0
2017-Oct-12 22:01N 35°26' E 139°43'0 0.0
2017-Oct-12 21:30N 35°26' E 139°43'0 0.0
2017-Oct-12 21:00N 35°26' E 139°43'0 0.0
2017-Oct-12 20:31N 35°26' E 139°43'0 0.0
2017-Oct-12 20:00N 35°26' E 139°43'3 5.7
2017-Oct-12 19:30N 35°25' E 139°46'510.2
2017-Oct-12 19:01N 35°20' E 139°44'510.0
2017-Oct-12 18:30N 35°15' E 139°47'510.2
2017-Oct-12 18:00N 35°10' E 139°46'510.4
2017-Oct-12 17:30N 35°05' E 139°44'510.9
2017-Oct-12 17:00N 35°01' E 139°40'611.7
2017-Oct-12 16:30N 34°58' E 139°34'  
2017-Oct-06 10:56N 34°36' E 134°54'613.8
2017-Oct-06 10:30N 34°37' E 135°01'612.8
2017-Oct-06 10:01N 34°36' E 135°09'611.8
2017-Oct-06 09:30N 34°36' E 135°16'4 8.1
2017-Oct-06 09:01N 34°38' E 135°20'4 8.2
2017-Oct-06 08:30N 34°39' E 135°25'0 0.2
2017-Oct-06 07:33N 34°39' E 135°25'0 0.0
2017-Oct-06 07:31N 34°39' E 135°25'3 5.7
2017-Oct-06 07:01N 34°39' E 135°22'610.9
2017-Oct-06 06:30N 34°37' E 135°15'510.8
2017-Oct-06 06:01N 34°35' E 135°09'712.7
2017-Oct-06 05:25N 34°37' E 135°01'3 0.1
2017-Oct-04 03:55N 34°37' E 134°57'4 8.2
2017-Oct-04 03:29N 34°37' E 135°02'4 8.7
2017-Oct-04 03:00N 34°36' E 135°06'611.6
2017-Oct-04 02:29N 34°36' E 135°14'510.5
2017-Oct-04 02:00N 34°38' E 135°20'4 8.3
2017-Oct-04 01:30N 34°39' E 135°24'3 5.1
2017-Oct-04 01:00N 34°38' E 135°27'0 0.0
2017-Oct-04 00:30N 34°38' E 135°27'0 0.0
2017-Oct-04 00:00N 34°38' E 135°27'0 0.0
2017-Oct-03 23:30N 34°38' E 135°27'0 0.3
2017-Oct-03 22:57N 34°38' E 135°27'2 4.1
2017-Oct-03 22:30N 34°39' E 135°25'5 9.5
2017-Oct-03 22:00N 34°36' E 135°20'1 1.8
2017-Oct-03 21:28N 34°36' E 135°19'0 0.0
2017-Oct-03 20:59N 34°36' E 135°19'0 0.0
2017-Oct-03 20:30N 34°36' E 135°19'0 0.0
2017-Oct-03 19:56N 34°36' E 135°19'2 4.0
2017-Oct-03 19:30N 34°36' E 135°17'611.0
2017-Oct-03 19:00N 34°35' E 135°10'612.1
2017-Oct-03 18:30N 34°36' E 135°03'  
Track history (hours):
 
Tides and Currents Weather Stations Pressure Air Temp Water Temp Dewpoint Dewpoint Depression Visibility Wind Speed Wind Dir Waves Ship Positions

Koki Maru No.30

Last reported at 2017-Oct-13 07:09 UTC. Time now 2017-Oct-20 05:15 UTC.
Position N 34°58' E 139°22'.

Length 53 m; draft 3 m.

Type: Tanker. MMSI: 431000173.

Date/timePositionNaut miles runAvg speedWind from/ knotsBaromVisibWave heightAir tempDewpointWater temp
2017-Oct-13 07:09N 34°58' E 139°22'210.1
2017-Oct-13 07:00N 34°59' E 139°24'510.2
2017-Oct-13 06:30N 35°01' E 139°29'611.0
2017-Oct-13 05:59N 35°04' E 139°35'611.7
2017-Oct-13 05:30N 35°07' E 139°41'611.5
2017-Oct-13 05:00N 35°12' E 139°45'510.9
2017-Oct-13 04:30N 35°17' E 139°45'611.3
2017-Oct-13 04:00N 35°22' E 139°42'611.1
2017-Oct-13 03:30N 35°28' E 139°42'1 3.0
2017-Oct-13 03:00N 35°29' E 139°43'0 0.0
2017-Oct-13 02:30N 35°29' E 139°43'0 0.0
2017-Oct-13 02:00N 35°29' E 139°43'0 0.0
2017-Oct-13 01:30N 35°29' E 139°43'0 0.0
2017-Oct-13 01:01N 35°29' E 139°43'0 0.0
2017-Oct-13 00:30N 35°29' E 139°43'0 0.0
2017-Oct-13 00:00N 35°29' E 139°43'0 0.0
2017-Oct-12 23:30N 35°29' E 139°43'1 2.1
2017-Oct-12 23:00N 35°28' E 139°42'2 4.6
2017-Oct-12 22:30N 35°26' E 139°43'0 0.0
2017-Oct-12 22:01N 35°26' E 139°43'0 0.0
2017-Oct-12 21:30N 35°26' E 139°43'0 0.0
2017-Oct-12 21:00N 35°26' E 139°43'0 0.0
2017-Oct-12 20:31N 35°26' E 139°43'0 0.0
2017-Oct-12 20:00N 35°26' E 139°43'3 5.7
2017-Oct-12 19:30N 35°25' E 139°46'510.2
2017-Oct-12 19:01N 35°20' E 139°44'510.0
2017-Oct-12 18:30N 35°15' E 139°47'510.2
2017-Oct-12 18:00N 35°10' E 139°46'510.4
2017-Oct-12 17:30N 35°05' E 139°44'510.9
2017-Oct-12 17:00N 35°01' E 139°40'611.7
2017-Oct-12 16:30N 34°58' E 139°34'  
2017-Oct-06 10:56N 34°36' E 134°54'613.8
2017-Oct-06 10:30N 34°37' E 135°01'612.8
2017-Oct-06 10:01N 34°36' E 135°09'611.8
2017-Oct-06 09:30N 34°36' E 135°16'4 8.1
2017-Oct-06 09:01N 34°38' E 135°20'4 8.2
2017-Oct-06 08:30N 34°39' E 135°25'0 0.2
2017-Oct-06 07:33N 34°39' E 135°25'0 0.0
2017-Oct-06 07:31N 34°39' E 135°25'3 5.7
2017-Oct-06 07:01N 34°39' E 135°22'610.9
2017-Oct-06 06:30N 34°37' E 135°15'510.8
2017-Oct-06 06:01N 34°35' E 135°09'712.7
2017-Oct-06 05:25N 34°37' E 135°01'3 0.1
2017-Oct-04 03:55N 34°37' E 134°57'4 8.2
2017-Oct-04 03:29N 34°37' E 135°02'4 8.7
2017-Oct-04 03:00N 34°36' E 135°06'611.6
2017-Oct-04 02:29N 34°36' E 135°14'510.5
2017-Oct-04 02:00N 34°38' E 135°20'4 8.3
2017-Oct-04 01:30N 34°39' E 135°24'3 5.1
2017-Oct-04 01:00N 34°38' E 135°27'0 0.0
2017-Oct-04 00:30N 34°38' E 135°27'0 0.0
2017-Oct-04 00:00N 34°38' E 135°27'0 0.0
2017-Oct-03 23:30N 34°38' E 135°27'0 0.3
2017-Oct-03 22:57N 34°38' E 135°27'2 4.1
2017-Oct-03 22:30N 34°39' E 135°25'5 9.5
2017-Oct-03 22:00N 34°36' E 135°20'1 1.8
2017-Oct-03 21:28N 34°36' E 135°19'0 0.0
2017-Oct-03 20:59N 34°36' E 135°19'0 0.0
2017-Oct-03 20:30N 34°36' E 135°19'0 0.0
2017-Oct-03 19:56N 34°36' E 135°19'2 4.0
2017-Oct-03 19:30N 34°36' E 135°17'611.0
2017-Oct-03 19:00N 34°35' E 135°10'612.1
2017-Oct-03 18:30N 34°36' E 135°03'  

Dump ship's entire track history